createdAt,value
2023-01-22T00:03:29.508Z,1.19
2023-01-22T00:08:52.107Z,1.26
2023-01-22T00:14:14.071Z,1.31
2023-01-22T00:19:38.280Z,1.26
2023-01-22T00:25:00.193Z,1.23
2023-01-22T00:30:24.411Z,1.32
2023-01-22T00:35:48.627Z,1.48
2023-01-22T00:41:10.884Z,1.61
2023-01-22T00:46:33.002Z,1.57
2023-01-22T00:51:55.096Z,1.55
2023-01-22T00:57:21.973Z,1.54
2023-01-22T01:03:02.915Z,1.46
2023-01-22T01:08:27.666Z,1.24
2023-01-22T01:13:50.865Z,1.14
2023-01-22T01:19:13.027Z,1.27
2023-01-22T01:24:36.620Z,1.27
2023-01-22T01:29:58.932Z,1.27
2023-01-22T01:35:22.138Z,1.29
2023-01-22T01:40:45.115Z,1.31
2023-01-22T01:46:16.891Z,1.20
2023-01-22T01:51:38.683Z,1.23
2023-01-22T01:57:05.311Z,1.19
2023-01-22T02:02:27.372Z,1.19
2023-01-22T02:07:49.146Z,1.29
2023-01-22T02:13:15.073Z,1.20
2023-01-22T02:18:36.727Z,1.12
2023-01-22T02:23:59.383Z,1.06
2023-01-22T02:29:21.782Z,1.06
2023-01-22T02:34:43.819Z,0.97
2023-01-22T02:40:06.518Z,0.86
2023-01-22T02:45:28.663Z,0.80
2023-01-22T02:50:50.455Z,0.79
2023-01-22T02:56:12.575Z,0.85
2023-01-22T03:01:34.564Z,0.82
2023-01-22T03:06:56.819Z,0.85
2023-01-22T03:12:19.847Z,0.86
2023-01-22T03:18:00.584Z,0.87
2023-01-22T03:23:27.644Z,0.92
2023-01-22T03:28:50.288Z,0.85
2023-01-22T03:34:12.050Z,0.76
2023-01-22T03:39:35.281Z,0.76
2023-01-22T03:44:58.310Z,0.86
2023-01-22T03:50:20.762Z,0.84
2023-01-22T03:55:42.167Z,0.85
2023-01-22T04:01:08.007Z,0.88
2023-01-22T04:06:30.841Z,0.96
2023-01-22T04:11:53.037Z,0.99
2023-01-22T04:17:15.060Z,0.93
2023-01-22T04:22:57.838Z,0.94
2023-01-22T04:28:20.387Z,0.95
2023-01-22T04:33:44.665Z,0.98
2023-01-22T04:39:11.862Z,1.00
2023-01-22T04:44:33.829Z,0.97
2023-01-22T04:49:55.971Z,0.86
2023-01-22T04:55:17.699Z,0.80
2023-01-22T05:01:01.702Z,0.84
2023-01-22T05:06:23.985Z,0.80
2023-01-22T05:11:46.079Z,0.82
2023-01-22T05:17:08.417Z,0.84
2023-01-22T05:22:30.025Z,0.90
2023-01-22T05:27:53.276Z,0.91
2023-01-22T05:33:35.705Z,0.97
2023-01-22T05:38:58.564Z,1.01
2023-01-22T05:44:21.965Z,0.99
2023-01-22T05:49:47.260Z,0.96
2023-01-22T05:55:10.418Z,0.98
2023-01-22T06:00:37.657Z,1.03
2023-01-22T06:06:11.949Z,0.95
2023-01-22T06:11:33.773Z,0.94
2023-01-22T06:16:55.480Z,0.92
2023-01-22T06:22:30.655Z,0.93
2023-01-22T06:27:55.739Z,0.90
2023-01-22T06:33:18.192Z,0.87
2023-01-22T06:38:39.998Z,0.84
2023-01-22T06:44:03.170Z,0.76
2023-01-22T06:49:25.222Z,0.68
2023-01-22T06:54:49.251Z,0.66
2023-01-22T07:00:12.228Z,0.64
2023-01-22T07:05:35.220Z,0.61
2023-01-22T07:10:57.052Z,0.65
2023-01-22T07:16:18.929Z,0.73
2023-01-22T07:21:42.815Z,0.82
2023-01-22T07:27:05.049Z,0.90
2023-01-22T07:32:27.077Z,0.95
2023-01-22T07:37:56.837Z,0.95
2023-01-22T07:43:18.564Z,1.00
2023-01-22T07:48:40.353Z,1.07
2023-01-22T07:54:02.030Z,1.02
2023-01-22T07:59:29.178Z,0.96
2023-01-22T08:04:51.193Z,0.99
2023-01-22T08:10:15.261Z,1.03
2023-01-22T08:15:37.924Z,0.94
2023-01-22T08:21:01.441Z,0.98
2023-01-22T08:26:29.130Z,1.05
2023-01-22T08:31:51.372Z,1.17
2023-01-22T08:37:12.830Z,1.22
2023-01-22T08:42:34.678Z,1.29
2023-01-22T08:47:58.929Z,1.35
2023-01-22T08:53:20.390Z,1.38
2023-01-22T08:58:42.121Z,1.49
2023-01-22T09:04:07.065Z,1.48
2023-01-22T09:09:28.752Z,1.49
2023-01-22T09:14:50.917Z,1.55
2023-01-22T09:20:12.896Z,1.73
2023-01-22T09:25:35.655Z,1.88
2023-01-22T09:30:58.162Z,1.91
2023-01-22T09:36:20.315Z,1.80
2023-01-22T09:41:46.935Z,1.68
2023-01-22T09:47:15.249Z,1.74
2023-01-22T09:52:38.483Z,1.77
2023-01-22T09:58:02.315Z,1.78
2023-01-22T10:03:39.147Z,1.97
2023-01-22T10:09:14.793Z,2.02
2023-01-22T10:14:36.493Z,1.99
2023-01-22T10:20:04.292Z,1.98
2023-01-22T10:25:26.598Z,1.95
2023-01-22T10:30:51.718Z,1.88
2023-01-22T10:36:14.839Z,1.90
2023-01-22T10:41:36.541Z,1.93
2023-01-22T10:47:18.558Z,2.11
2023-01-22T10:52:48.943Z,2.25
2023-01-22T10:58:16.534Z,2.18
2023-01-22T11:03:39.728Z,2.10
2023-01-22T11:09:15.562Z,2.14
2023-01-22T11:14:38.314Z,2.16
2023-01-22T11:20:10.622Z,2.26
2023-01-22T11:25:41.453Z,2.38
2023-01-22T11:31:23.094Z,2.43
2023-01-22T11:36:58.830Z,2.46
2023-01-22T11:42:23.640Z,2.42
2023-01-22T11:48:04.406Z,2.34
2023-01-22T11:53:59.642Z,2.40
2023-01-22T11:59:27.402Z,2.38
2023-01-22T12:05:18.684Z,2.37
2023-01-22T12:11:25.362Z,2.28
2023-01-22T12:16:58.374Z,2.21
2023-01-22T12:22:35.774Z,2.15
2023-01-22T12:28:03.034Z,2.14
2023-01-22T12:33:27.638Z,2.12
2023-01-22T12:39:11.940Z,2.00
2023-01-22T12:44:44.648Z,1.93
2023-01-22T12:50:20.547Z,1.94
2023-01-22T12:55:44.298Z,1.97
2023-01-22T13:01:24.123Z,1.94
2023-01-22T13:06:48.048Z,1.94
2023-01-22T13:12:22.022Z,1.94
2023-01-22T13:17:44.148Z,1.91
2023-01-22T13:23:07.623Z,1.82
2023-01-22T13:28:30.315Z,1.84
2023-01-22T13:33:53.448Z,1.89
2023-01-22T13:39:18.955Z,1.80
2023-01-22T13:44:42.731Z,1.77
2023-01-22T13:50:05.170Z,1.76
2023-01-22T13:55:28.056Z,1.75
2023-01-22T14:00:52.852Z,1.71
2023-01-22T14:06:15.364Z,1.69
2023-01-22T14:11:39.374Z,1.66
2023-01-22T14:17:01.743Z,1.70
2023-01-22T14:22:24.468Z,1.74
2023-01-22T14:27:48.565Z,1.71
2023-01-22T14:33:24.135Z,1.75
2023-01-22T14:38:46.807Z,1.86
2023-01-22T14:44:09.053Z,1.95
2023-01-22T14:49:31.190Z,1.95
2023-01-22T14:54:53.006Z,1.96
2023-01-22T15:00:17.915Z,1.92
2023-01-22T15:05:41.471Z,1.90
2023-01-22T15:11:05.703Z,1.97
2023-01-22T15:16:27.699Z,1.96
2023-01-22T15:21:49.681Z,1.94
2023-01-22T15:27:11.900Z,1.93
2023-01-22T15:32:34.029Z,1.93
2023-01-22T15:37:55.529Z,1.94
2023-01-22T15:43:17.185Z,1.90
2023-01-22T15:48:38.978Z,1.95
2023-01-22T15:54:03.353Z,1.96
2023-01-22T15:59:25.435Z,1.99
2023-01-22T16:04:47.204Z,2.06
2023-01-22T16:10:10.907Z,2.14
2023-01-22T16:15:34.407Z,2.18
2023-01-22T16:21:00.809Z,2.12
2023-01-22T16:26:26.066Z,2.11
2023-01-22T16:31:48.210Z,2.10
2023-01-22T16:37:09.780Z,2.12
2023-01-22T16:42:33.166Z,2.17
2023-01-22T16:47:56.595Z,2.23
2023-01-22T16:53:18.623Z,2.24
2023-01-22T16:58:40.802Z,2.25
2023-01-22T17:04:03.960Z,2.23
2023-01-22T17:09:28.620Z,2.19
2023-01-22T17:14:52.819Z,2.11
2023-01-22T17:20:17.565Z,2.02
2023-01-22T17:25:42.015Z,2.00
2023-01-22T17:31:09.452Z,2.04
2023-01-22T17:36:31.895Z,2.06
2023-01-22T17:41:53.645Z,2.04
2023-01-22T17:47:16.656Z,2.06
2023-01-22T17:52:39.111Z,2.16
2023-01-22T17:58:01.239Z,2.27
2023-01-22T18:03:23.474Z,2.29
2023-01-22T18:08:45.411Z,2.27
2023-01-22T18:14:11.367Z,2.30
2023-01-22T18:19:33.217Z,2.27
2023-01-22T18:24:54.946Z,2.21
2023-01-22T18:30:18.456Z,2.17
2023-01-22T18:35:58.953Z,2.19
2023-01-22T18:41:24.841Z,2.27
2023-01-22T18:46:48.540Z,2.38
2023-01-22T18:52:10.092Z,2.33
2023-01-22T18:57:54.763Z,2.25
2023-01-22T19:03:36.467Z,2.35
2023-01-22T19:09:04.746Z,2.43
2023-01-22T19:14:27.235Z,2.42
2023-01-22T19:19:49.062Z,2.50
2023-01-22T19:25:11.046Z,2.63
2023-01-22T19:30:33.355Z,2.70
2023-01-22T19:35:58.089Z,2.86
2023-01-22T19:41:20.974Z,2.97
2023-01-22T19:46:43.189Z,2.78
2023-01-22T19:52:05.021Z,2.70
2023-01-22T19:57:30.188Z,2.69
2023-01-22T20:02:55.198Z,2.87
2023-01-22T20:08:17.548Z,2.82
2023-01-22T20:13:41.875Z,2.76
2023-01-22T20:19:03.945Z,2.78
2023-01-22T20:24:29.497Z,2.79
2023-01-22T20:29:51.447Z,2.76
2023-01-22T20:35:18.974Z,2.85
2023-01-22T20:40:42.387Z,2.82
2023-01-22T20:46:11.556Z,2.79
2023-01-22T20:51:33.572Z,2.77
2023-01-22T20:56:55.731Z,2.89
2023-01-22T21:02:18.031Z,2.97
2023-01-22T21:07:40.094Z,3.09
2023-01-22T21:13:01.930Z,3.18
2023-01-22T21:18:23.984Z,3.17
2023-01-22T21:23:50.039Z,3.23
2023-01-22T21:29:15.377Z,3.09
2023-01-22T21:34:37.499Z,3.03
2023-01-22T21:39:59.165Z,3.00
2023-01-22T21:45:40.263Z,2.84
2023-01-22T21:51:02.857Z,2.80
2023-01-22T21:56:25.022Z,2.88
2023-01-22T22:01:46.970Z,3.03
2023-01-22T22:07:08.802Z,3.24
2023-01-22T22:12:33.874Z,3.39
2023-01-22T22:17:56.051Z,3.49
2023-01-22T22:23:17.979Z,3.46
2023-01-22T22:28:40.498Z,3.30
2023-01-22T22:34:02.877Z,3.15
2023-01-22T22:39:24.777Z,3.14
2023-01-22T22:44:46.493Z,3.16
2023-01-22T22:50:10.513Z,3.09
2023-01-22T22:55:32.516Z,3.04
2023-01-22T23:00:54.404Z,3.23
2023-01-22T23:06:19.612Z,3.26
2023-01-22T23:11:42.179Z,3.19
2023-01-22T23:17:04.899Z,3.18
2023-01-22T23:22:27.988Z,3.00
2023-01-22T23:27:49.962Z,2.85
2023-01-22T23:33:11.848Z,2.90
2023-01-22T23:38:33.926Z,2.87
2023-01-22T23:43:55.986Z,2.99
2023-01-22T23:49:17.528Z,2.91
2023-01-22T23:54:39.207Z,2.93
